Whitehall, Michigan

11:47 AM EDT on July 24, 2016 (GMT -0400)
MARITIME | | Change Station

Elev 600 ft 47.60 °N, 87.90 °W | Updated 1 hour ago

Overcast
Overcast
64.0 °F
Feels Like 64.0 °F
N
14.0
Wind Variable Wind from ENE
Gusts 0.0 mph

Today
High -- | Low -- °F
--% Chance of Precip.
Yesterday
High -- | Low -- °F
Precip. -- in
Pressure 29.92 in
Visibility 10.0 miles
Clouds Mostly Cloudy 4100 ft
Mostly Cloudy 5000 ft
Overcast 6000 ft
Dew Point Not available.
Humidity Not available.
Rainfall in
Snow Depth Not available.
6:30 AM 9:17 PM
Waning Gibbous, 75% visible
METAR KMKG 241455Z 15004KT 10SM BKN041 BKN050 OVC060 22/21 A2992 RMK AO2 RAE10 SLP130 P0001 60018 T02220211 58008
Pressure 29.92 in
Visibility 10.0 miles
Clouds Mostly Cloudy 4100 ft
Mostly Cloudy 5000 ft
Overcast 6000 ft
Dew Point Not available.
Humidity Not available.
Rainfall in
Snow Depth Not available.
6:30 AM 9:17 PM
Waning Gibbous, 75% visible
METAR KMKG 241455Z 15004KT 10SM BKN041 BKN050 OVC060 22/21 A2992 RMK AO2 RAE10 SLP130 P0001 60018 T02220211 58008

10-Day Weather Forecast

Almanac

Astronomy

Jul. 24, 2016 Rise Set
Actual Time
Civil Twilight
Nautical Twilight
Astronomical Twilight
Moon
Length of Visible Light
Length of Day
Tomorrow will be .
, % of the Moon is Illuminated

Today's Extremes

State Highs State Lows

Community

WunderPhotos

Upload Photos

1,927,092 photos uploaded!

WunderBlog® & News

Nearby

Air Quality

  Air Quality AQ Index Pollutant
Not available.

Snow Depth

Station Depth Elevation

Earthquake Activity

City Distance Mag. Time & Date
Minimum magnitude displayed is 2.5.

Coastal Water Temperatures

Place Temperature

Stations

Nearby Weather Stations

Station Location Temp. Windchill Dew Point Humidity Wind Precip. Elev Updated Type
                   

Watches & Warnings

There are currently no watches in effect.